Time;durP1;ratioP1;P1;durP2;ratioP2;P2;SDS_P1;SDS_P2;PMS_P1;PMS_P2;Temp;Humidity;BMP_temperature;BMP_pressure;BME280_temperature;BME280_humidity;BME280_pressure;Samples;Min_cycle;Max_cycle;Signal;HPM_P1;HPM_P2
2023/07/15 00:02:05;;;;;;;5.40;3.20;;;;;;;-141.84;48.27;21631.19;5022211;28;20479;-64
2023/07/15 00:04:34;;;;;;;4.38;3.33;;;;;;;-141.84;48.42;21600.69;5014943;28;20253;-63
2023/07/15 00:07:04;;;;;;;3.67;3.38;;;;;;;-141.84;48.36;21610.84;5022769;28;20238;-62
2023/07/15 00:09:35;;;;;;;3.95;3.58;;;;;;;-141.84;48.69;21604.75;5023222;28;20221;-63
2023/07/15 00:12:04;;;;;;;3.50;3.20;;;;;;;-141.84;49.17;21600.69;5022630;28;20293;-62
2023/07/15 00:14:32;;;;;;;3.92;3.45;;;;;;;-141.84;48.90;21621.03;5015324;28;20233;-63
2023/07/15 00:17:01;;;;;;;3.72;3.40;;;;;;;-141.84;48.58;21608.81;5022776;28;20667;-62
2023/07/15 00:19:29;;;;;;;3.90;3.50;;;;;;;-141.84;48.53;21586.47;5022497;28;20236;-62
2023/07/15 00:21:58;;;;;;;4.63;3.80;;;;;;;-141.84;48.67;21576.28;5022524;28;20223;-63
2023/07/15 00:24:27;;;;;;;3.90;3.50;;;;;;;-141.84;49.20;21566.13;5014023;28;20249;-61
2023/07/15 00:26:58;;;;;;;4.55;3.95;;;;;;;-141.84;49.29;21578.31;5022717;28;20210;-64
2023/07/15 00:29:27;;;;;;;5.82;4.38;;;;;;;-141.84;49.21;21539.69;5022540;28;20249;-63
2023/07/15 00:31:57;;;;;;;4.13;3.78;;;;;;;-141.84;49.23;21576.28;5022047;28;20777;-63
2023/07/15 00:34:25;;;;;;;4.78;4.05;;;;;;;-141.84;49.58;21525.47;5019136;28;20253;-63
2023/07/15 00:36:54;;;;;;;4.72;3.85;;;;;;;-141.84;49.44;21519.34;5022695;28;20232;-63
2023/07/15 00:39:23;;;;;;;4.00;3.70;;;;;;;-141.84;49.62;21543.75;5022507;28;20313;-63
2023/07/15 00:41:52;;;;;;;5.63;3.95;;;;;;;-141.84;49.52;21545.78;5022649;28;20217;-63
2023/07/15 00:44:20;;;;;;;4.80;3.75;;;;;;;-141.84;49.91;21521.41;5022017;28;20248;-63
2023/07/15 00:47:14;;;;;;;4.82;4.07;;;;;;;-141.84;49.92;21513.25;5014793;28;20238;-63
2023/07/15 00:49:44;;;;;;;4.47;3.67;;;;;;;-141.84;49.81;21511.22;5022113;28;20241;-62
2023/07/15 00:52:15;;;;;;;5.63;3.65;;;;;;;-141.84;50.25;21505.13;5022080;28;20456;-64
2023/07/15 00:54:48;;;;;;;4.80;3.88;;;;;;;-141.84;50.12;21492.94;5013360;28;20249;-64
2023/07/15 00:57:18;;;;;;;4.00;3.60;;;;;;;-141.84;50.02;21494.97;5022606;28;20617;-64
2023/07/15 00:59:48;;;;;;;4.35;3.95;;;;;;;-141.84;49.96;21517.31;5022947;28;20201;-63
2023/07/15 01:02:18;;;;;;;4.00;3.60;;;;;;;-141.84;50.07;21454.28;5021676;28;20261;-64
2023/07/15 01:04:47;;;;;;;4.20;3.58;;;;;;;-141.84;50.24;21484.78;5013321;28;20233;-63
2023/07/15 01:07:16;;;;;;;5.32;3.60;;;;;;;-141.84;50.10;21476.66;5022660;28;20229;-63
2023/07/15 01:09:46;;;;;;;4.57;3.90;;;;;;;-141.84;50.14;21492.94;5022179;28;20253;-63
2023/07/15 01:12:15;;;;;;;3.83;3.42;;;;;;;-141.84;50.52;21472.59;5022163;28;20762;-63
2023/07/15 01:14:44;;;;;;;3.67;3.33;;;;;;;-141.84;50.33;21480.72;5014743;28;20280;-63
2023/07/15 01:17:13;;;;;;;4.97;3.45;;;;;;;-141.84;50.52;21466.50;5021960;28;20241;-62
2023/07/15 01:19:42;;;;;;;4.32;3.92;;;;;;;-141.84;50.53;21448.19;5021960;28;20237;-62
2023/07/15 01:22:12;;;;;;;4.20;3.75;;;;;;;-141.84;50.58;21456.34;5021913;28;20237;-64
2023/07/15 01:24:41;;;;;;;4.00;3.22;;;;;;;-141.84;50.45;21431.94;5012620;28;20228;-63
2023/07/15 01:27:10;;;;;;;5.68;3.90;;;;;;;-141.84;50.40;21466.50;5022363;28;20296;-62
2023/07/15 01:29:39;;;;;;;4.32;3.42;;;;;;;-141.84;50.75;21429.91;5022058;28;20301;-63
2023/07/15 01:32:07;;;;;;;4.88;3.47;;;;;;;-141.84;50.78;21433.97;5021724;28;20271;-64
2023/07/15 01:34:36;;;;;;;3.95;3.58;;;;;;;-141.84;51.23;21397.38;5013877;28;20305;-62
2023/07/15 01:37:05;;;;;;;4.40;3.70;;;;;;;-141.84;50.89;21389.22;5021545;28;20238;-63
2023/07/15 01:39:34;;;;;;;4.15;3.45;;;;;;;-141.84;50.93;21450.22;5021741;28;20314;-64
2023/07/15 01:42:05;;;;;;;4.90;3.60;;;;;;;-141.84;50.72;21389.22;5021630;28;20690;-63
2023/07/15 01:44:33;;;;;;;3.80;3.38;;;;;;;-141.84;50.45;21438.03;5014330;28;20210;-63
2023/07/15 01:47:01;;;;;;;4.80;3.00;;;;;;;-141.84;50.64;21431.94;5021278;28;20225;-63
2023/07/15 01:49:30;;;;;;;5.55;3.30;;;;;;;-141.84;50.74;21407.53;5021496;28;20245;-62
2023/07/15 01:51:59;;;;;;;3.60;3.30;;;;;;;-141.84;51.04;21368.91;5021137;28;20596;-63
2023/07/15 01:54:27;;;;;;;3.83;3.50;;;;;;;-141.84;50.76;21423.81;5013648;28;20250;-64
2023/07/15 01:56:56;;;;;;;3.90;3.50;;;;;;;-141.84;50.67;21425.84;5018444;28;20237;-62
2023/07/15 01:59:26;;;;;;;4.25;3.45;;;;;;;-141.84;50.75;21446.16;5025092;28;20624;-62
2023/07/15 02:01:56;;;;;;;4.88;3.58;;;;;;;-141.84;51.12;21415.66;5024804;28;20238;-63
2023/07/15 02:04:25;;;;;;;5.03;3.50;;;;;;;-141.84;51.20;21417.69;5022905;28;20274;-62
2023/07/15 02:06:53;;;;;;;4.53;3.40;;;;;;;-141.84;51.12;21417.69;5024671;28;20337;-62
2023/07/15 02:09:22;;;;;;;5.43;3.55;;;;;;;-141.84;51.23;21393.31;5024298;28;20269;-63
2023/07/15 02:11:50;;;;;;;3.47;3.17;;;;;;;-141.84;51.39;21395.34;5025016;28;20240;-63
2023/07/15 02:14:19;;;;;;;4.63;3.90;;;;;;;-141.84;51.00;21381.09;5024417;28;20217;-63
2023/07/15 02:16:48;;;;;;;5.40;3.78;;;;;;;-141.84;51.15;21401.44;5017165;28;20341;-62
2023/07/15 02:19:17;;;;;;;3.70;3.20;;;;;;;-141.84;50.96;21397.38;5024747;28;20313;-63
2023/07/15 02:21:46;;;;;;;6.18;3.35;;;;;;;-141.84;51.29;21387.19;5024332;28;20312;-62
2023/07/15 02:24:14;;;;;;;4.22;3.30;;;;;;;-141.84;51.06;21381.09;5014988;28;20243;-63
2023/07/15 02:26:43;;;;;;;6.28;3.33;;;;;;;-141.84;51.28;21368.91;5014573;28;20687;-62
2023/07/15 02:29:13;;;;;;;4.75;3.40;;;;;;;-141.84;51.12;21415.66;5024158;28;20233;-62
2023/07/15 02:31:42;;;;;;;5.85;3.90;;;;;;;-141.84;50.90;21440.06;5024148;28;20264;-63
2023/07/15 02:34:13;;;;;;;4.90;3.65;;;;;;;-141.84;50.94;21397.38;5024090;28;20751;-63
2023/07/15 02:36:41;;;;;;;5.18;3.53;;;;;;;-141.84;50.66;21366.88;5014371;28;20230;-62
2023/07/15 02:39:13;;;;;;;3.92;3.50;;;;;;;-141.84;50.99;21370.94;5023504;28;20312;-62
2023/07/15 02:41:41;;;;;;;4.18;3.78;;;;;;;-141.84;51.22;21377.03;5020886;28;20287;-63
2023/07/15 02:44:09;;;;;;;4.15;3.72;;;;;;;-141.84;51.26;21381.09;5024194;28;20325;-62
2023/07/15 02:46:38;;;;;;;4.22;3.47;;;;;;;-141.84;51.09;21372.97;5015923;28;20321;-63
2023/07/15 02:49:09;;;;;;;4.70;3.38;;;;;;;-141.84;51.08;21419.72;5023832;28;20234;-63
2023/07/15 02:51:39;;;;;;;5.20;3.40;;;;;;;-141.84;51.12;21358.75;5024654;28;20256;-63
2023/07/15 02:54:07;;;;;;;4.32;3.28;;;;;;;-141.84;50.95;21366.88;5017255;28;20238;-63
2023/07/15 02:56:36;;;;;;;3.50;3.20;;;;;;;-141.84;51.18;21379.06;5007308;28;20254;-63
2023/07/15 02:59:04;;;;;;;4.30;3.53;;;;;;;-141.84;50.96;21350.59;5024107;28;20242;-63
2023/07/15 03:01:34;;;;;;;4.05;3.30;;;;;;;-141.84;51.25;21391.28;5017987;28;20288;-63
2023/07/15 03:04:03;;;;;;;3.75;3.38;;;;;;;-141.84;50.32;21454.28;5003782;28;20230;-64
2023/07/15 03:06:33;;;;;;;5.60;3.40;;;;;;;-141.84;50.52;21395.34;4995700;28;20311;-64
2023/07/15 03:09:03;;;;;;;3.95;3.30;;;;;;;-141.84;50.47;21423.81;5014465;28;20238;-63
2023/07/15 03:11:32;;;;;;;4.57;3.40;;;;;;;-141.84;50.85;21377.03;5024059;28;20276;-63
2023/07/15 03:14:01;;;;;;;4.68;3.60;;;;;;;-141.84;51.14;21399.41;5023636;28;20332;-63
2023/07/15 03:16:29;;;;;;;5.43;3.15;;;;;;;-141.84;51.42;21352.63;5016027;28;20322;-63
2023/07/15 03:18:58;;;;;;;3.63;3.13;;;;;;;-141.84;51.17;21354.66;5023391;28;20233;-63
2023/07/15 03:21:26;;;;;;;4.78;3.35;;;;;;;-141.84;51.18;21379.06;5023776;28;20312;-64
2023/07/15 03:23:55;;;;;;;4.13;3.53;;;;;;;-141.84;51.04;21368.91;5023490;28;20220;-64
2023/07/15 03:26:25;;;;;;;5.60;3.30;;;;;;;-141.84;51.18;21346.53;5022680;28;20313;-63
2023/07/15 03:28:54;;;;;;;3.72;2.97;;;;;;;-141.84;50.78;21399.41;5023328;28;20316;-64
2023/07/15 03:31:22;;;;;;;3.42;3.13;;;;;;;-141.84;51.03;21383.13;5023347;28;20341;-63
2023/07/15 03:33:53;;;;;;;3.42;3.13;;;;;;;-141.84;50.67;21413.63;5023593;28;20226;-64
2023/07/15 03:36:24;;;;;;;5.72;3.25;;;;;;;-141.84;50.74;21403.47;5011459;28;20308;-62
2023/07/15 03:38:53;;;;;;;3.70;2.97;;;;;;;-141.84;50.74;21438.03;5023376;28;20704;-63
2023/07/15 03:41:21;;;;;;;4.22;3.08;;;;;;;-141.84;50.40;21440.06;5022630;28;20229;-62
2023/07/15 03:43:51;;;;;;;4.20;3.20;;;;;;;-141.84;50.42;21427.88;5023200;28;20922;-62
2023/07/15 03:46:20;;;;;;;5.05;3.42;;;;;;;-141.84;50.20;21464.47;5022956;28;20280;-63
2023/07/15 03:48:48;;;;;;;3.65;3.35;;;;;;;-141.84;49.65;21478.69;5015214;28;20237;-63
2023/07/15 03:51:17;;;;;;;3.83;3.38;;;;;;;-141.84;50.00;21468.53;5023235;28;20206;-63
2023/07/15 03:53:45;;;;;;;3.65;3.10;;;;;;;-141.84;50.04;21433.97;5013494;28;20297;-63
2023/07/15 03:56:14;;;;;;;4.05;3.42;;;;;;;-141.84;49.82;21484.78;5023360;28;20741;-62
2023/07/15 03:58:43;;;;;;;6.72;3.30;;;;;;;-141.84;49.84;21482.75;5014782;28;20238;-62
2023/07/15 04:01:13;;;;;;;3.83;3.42;;;;;;;-141.84;49.88;21466.50;5023090;28;20236;-62
2023/07/15 04:03:42;;;;;;;4.47;3.20;;;;;;;-141.84;49.93;21468.53;5022575;28;20599;-62
2023/07/15 04:06:10;;;;;;;4.43;2.97;;;;;;;-141.84;49.83;21492.94;5022512;28;20567;-62
2023/07/15 04:08:39;;;;;;;5.95;3.35;;;;;;;-141.84;49.80;21499.03;5014971;28;20206;-62
2023/07/15 04:11:09;;;;;;;4.30;3.20;;;;;;;-141.84;49.45;21545.78;5022916;28;20333;-63
2023/07/15 04:13:37;;;;;;;4.82;3.05;;;;;;;-141.84;49.26;21535.63;5022978;28;20226;-63
2023/07/15 04:16:06;;;;;;;6.43;3.40;;;;;;;-141.84;49.32;21517.31;5022462;28;20312;-63
2023/07/15 04:18:36;;;;;;;3.10;2.80;;;;;;;-141.84;49.77;21501.06;5014625;28;20257;-62
2023/07/15 04:21:04;;;;;;;3.70;2.90;;;;;;;-141.84;49.51;21549.84;5022598;28;20631;-62
2023/07/15 04:23:33;;;;;;;5.22;3.50;;;;;;;-141.84;50.03;21513.25;5021986;28;20228;-63
2023/07/15 04:26:03;;;;;;;4.07;3.20;;;;;;;-141.84;50.12;21529.53;5022455;28;20304;-63
2023/07/15 04:28:31;;;;;;;3.83;3.42;;;;;;;-141.84;49.56;21521.41;5014495;28;20234;-64
2023/07/15 04:31:00;;;;;;;3.42;3.10;;;;;;;-141.84;49.73;21545.78;5022599;28;20586;-63
2023/07/15 04:33:29;;;;;;;5.85;3.58;;;;;;;-141.84;49.26;21608.81;5022667;28;20252;-63
2023/07/15 04:35:59;;;;;;;3.33;3.03;;;;;;;-141.84;49.15;21580.34;5022930;28;20443;-62
2023/07/15 04:38:28;;;;;;;3.47;3.17;;;;;;;-141.84;48.98;21627.13;5013944;28;20321;-63
2023/07/15 04:40:57;;;;;;;6.88;3.30;;;;;;;-141.84;48.95;21639.31;5022702;28;20808;-63
2023/07/15 04:43:25;;;;;;;3.75;2.90;;;;;;;-141.84;48.71;21647.47;5022241;28;20268;-63
2023/07/15 04:45:54;;;;;;;4.60;2.92;;;;;;;-141.84;48.90;21677.97;5021846;28;20306;-62
2023/07/15 04:48:23;;;;;;;4.10;3.63;;;;;;;-141.84;48.24;21702.34;5021874;28;20233;-63
2023/07/15 04:50:52;;;;;;;3.42;3.13;;;;;;;-141.84;47.78;21722.69;5022459;28;20292;-64
2023/07/15 04:53:22;;;;;;;3.42;3.13;;;;;;;-141.84;47.81;21763.34;5021389;28;20769;-62
2023/07/15 04:55:51;;;;;;;4.15;2.95;;;;;;;-141.84;47.88;21767.44;5001992;28;20234;-62
2023/07/15 04:58:20;;;;;;;3.97;3.10;;;;;;;-141.84;46.68;21970.78;5002284;28;20373;-62
2023/07/15 05:00:49;;;;;;;3.08;2.78;;;;;;;-141.84;41.89;22538.16;4999275;28;20679;-64
2023/07/15 05:03:18;;;;;;;3.17;2.88;;;;;;;-141.84;38.63;23134.09;5021975;28;20259;-63
2023/07/15 05:05:47;;;;;;;4.18;2.85;;;;;;;-141.84;36.04;23732.16;5022221;28;20704;-62
2023/07/15 05:08:18;;;;;;;4.40;3.20;;;;;;;-141.84;33.89;24326.25;5021892;28;20643;-64
2023/07/15 05:10:49;;;;;;;4.82;3.25;;;;;;;-141.84;31.60;24987.59;5014104;28;20226;-63
2023/07/15 05:13:18;;;;;;;3.30;3.00;;;;;;;-141.84;31.04;25390.56;5021770;28;20248;-64
2023/07/15 05:15:46;;;;;;;3.50;2.70;;;;;;;-141.84;30.04;25795.59;5021348;28;20221;-64
2023/07/15 05:18:15;;;;;;;5.32;3.00;;;;;;;-141.84;29.95;26041.91;5021810;28;20226;-63
2023/07/15 05:20:44;;;;;;;3.08;2.80;;;;;;;-141.84;29.58;26186.44;5014472;28;20214;-63
2023/07/15 05:23:14;;;;;;;2.70;2.50;;;;;;;-141.84;29.65;26115.19;5021170;28;20713;-63
2023/07/15 05:25:43;;;;;;;5.03;2.80;;;;;;;-141.84;29.62;26251.56;5021684;28;20320;-64
2023/07/15 05:28:12;;;;;;;3.42;3.13;;;;;;;-141.84;29.50;26149.78;5021684;28;20291;-63
2023/07/15 05:30:41;;;;;;;3.33;2.97;;;;;;;-141.84;29.71;26147.75;5014148;28;20324;-63
2023/07/15 05:33:09;;;;;;;2.90;2.55;;;;;;;-141.84;29.68;26033.75;5025366;28;20240;-63
2023/07/15 05:35:38;;;;;;;3.50;2.90;;;;;;;-141.84;29.93;25817.97;5026095;28;20202;-64
2023/07/15 05:38:06;;;;;;;3.67;3.22;;;;;;;-141.84;31.28;25203.31;5025055;28;20325;-63
2023/07/15 05:40:35;;;;;;;3.63;2.85;;;;;;;-141.84;32.55;24611.13;5016955;28;20273;-63
2023/07/15 05:43:03;;;;;;;5.07;3.00;;;;;;;-141.84;34.26;23962.06;5023106;28;20293;-64
2023/07/15 05:45:33;;;;;;;3.42;3.13;;;;;;;-141.84;35.96;23545.00;5017089;28;20234;-62
2023/07/15 05:48:02;;;;;;;4.18;3.00;;;;;;;-141.84;36.97;23307.00;5016971;28;20268;-63
2023/07/15 05:50:34;;;;;;;3.33;3.03;;;;;;;-141.84;38.18;23111.72;5007008;28;20225;-63
2023/07/15 05:53:03;;;;;;;3.55;2.97;;;;;;;-141.84;38.98;23010.00;5007260;28;20238;-63
2023/07/15 05:55:33;;;;;;;3.97;3.25;;;;;;;-141.84;39.25;23034.44;5015033;28;20669;-62
2023/07/15 05:58:02;;;;;;;4.80;3.17;;;;;;;-141.84;39.63;22934.75;5008109;28;20226;-63
2023/07/15 06:00:32;;;;;;;4.50;3.10;;;;;;;-141.84;39.45;22969.34;5000345;28;20673;-63
2023/07/15 06:03:01;;;;;;;5.45;3.20;;;;;;;-141.84;40.12;22938.81;5025185;28;20726;-64
2023/07/15 06:05:30;;;;;;;3.45;3.05;;;;;;;-141.84;40.48;22883.91;5025854;28;20206;-63
2023/07/15 06:07:58;;;;;;;5.30;3.40;;;;;;;-141.84;40.64;22849.34;5024489;28;20242;-62
2023/07/15 06:10:27;;;;;;;3.45;3.15;;;;;;;-141.84;40.64;22837.13;5018153;28;20258;-62
2023/07/15 06:12:56;;;;;;;5.28;3.00;;;;;;;-141.84;41.34;22780.19;5023978;28;20249;-62
2023/07/15 06:15:24;;;;;;;3.85;3.17;;;;;;;-141.84;41.13;22818.81;5024518;28;20226;-63
2023/07/15 06:17:55;;;;;;;4.53;2.90;;;;;;;-141.84;41.06;22831.03;5025476;28;20222;-62
2023/07/15 06:20:24;;;;;;;5.13;2.92;;;;;;;-141.84;40.88;22883.91;5023097;28;20225;-66
2023/07/15 06:22:53;;;;;;;3.53;2.88;;;;;;;-141.84;40.91;22887.97;5024967;28;20504;-62
2023/07/15 06:25:21;;;;;;;5.43;3.28;;;;;;;-141.84;41.12;22934.75;5012788;28;20312;-62
2023/07/15 06:27:50;;;;;;;3.45;3.13;;;;;;;-141.84;40.71;22932.72;5014966;28;20465;-64
2023/07/15 06:30:18;;;;;;;4.88;3.00;;;;;;;-141.84;41.18;22932.72;5005321;28;20293;-62
2023/07/15 06:32:47;;;;;;;3.60;2.97;;;;;;;-141.84;40.81;22973.41;4997506;28;20238;-63
2023/07/15 06:35:17;;;;;;;4.60;3.00;;;;;;;-141.84;40.95;23012.06;5016020;28;20230;-62
2023/07/15 06:37:49;;;;;;;5.22;3.25;;;;;;;-141.84;40.53;23038.50;5024360;28;22543;-63
2023/07/15 06:40:18;;;;;;;3.33;2.90;;;;;;;-141.84;40.39;23087.31;5024785;28;20704;-62
2023/07/15 06:42:49;;;;;;;3.85;2.78;;;;;;;-141.84;40.80;23056.81;5015306;28;20311;-63
2023/07/15 06:45:21;;;;;;;3.70;2.92;;;;;;;-141.84;40.78;23062.91;5024547;28;20203;-62
2023/07/15 06:47:50;;;;;;;4.72;3.25;;;;;;;-141.84;40.72;23095.44;5024834;28;20222;-63
2023/07/15 06:50:20;;;;;;;3.42;3.13;;;;;;;-141.84;41.07;23115.78;5024377;28;20261;-63
2023/07/15 06:52:49;;;;;;;4.53;3.08;;;;;;;-141.84;41.10;23111.72;5017454;28;20312;-64
2023/07/15 06:55:17;;;;;;;4.22;3.20;;;;;;;-141.84;41.03;23111.72;5024284;28;20727;-63
2023/07/15 06:57:46;;;;;;;3.78;2.90;;;;;;;-141.84;40.88;23111.72;5023551;28;20249;-63
2023/07/15 07:00:15;;;;;;;5.30;3.17;;;;;;;-141.84;40.90;23172.75;5023961;28;20236;-63
2023/07/15 07:02:43;;;;;;;3.97;3.20;;;;;;;-141.84;40.69;23221.56;5016399;28;20859;-63
2023/07/15 07:05:12;;;;;;;4.68;3.00;;;;;;;-141.84;40.43;23241.91;5024416;28;20784;-63
2023/07/15 07:07:46;;;;;;;3.90;3.60;;;;;;;-141.84;40.54;23298.84;5023674;28;20218;-63
2023/07/15 07:10:14;;;;;;;4.72;2.95;;;;;;;-141.84;40.77;23302.94;5024003;28;20234;-63
2023/07/15 07:12:43;;;;;;;3.50;3.15;;;;;;;-141.84;40.46;23323.28;5015296;28;20280;-63
2023/07/15 07:15:12;;;;;;;3.17;2.88;;;;;;;-141.84;39.71;23429.03;5024253;28;20281;-64
2023/07/15 07:17:40;;;;;;;4.10;3.10;;;;;;;-141.84;39.97;23368.03;5024194;28;20276;-62
2023/07/15 07:20:09;;;;;;;3.38;2.90;;;;;;;-141.84;40.32;23402.59;5023698;28;20244;-64
2023/07/15 07:22:38;;;;;;;5.38;3.08;;;;;;;-141.84;40.02;23461.59;5015261;28;20724;-64
2023/07/15 07:25:09;;;;;;;3.13;2.83;;;;;;;-141.84;40.06;23396.50;5008235;28;20227;-64
2023/07/15 07:27:37;;;;;;;3.20;2.90;;;;;;;-141.84;40.07;23429.03;5009636;28;20646;-65
2023/07/15 07:30:07;;;;;;;3.67;3.13;;;;;;;-141.84;40.17;23386.34;5023642;28;20603;-65
2023/07/15 07:32:36;;;;;;;3.15;2.80;;;;;;;-141.84;40.14;23429.03;5010153;28;20314;-65
2023/07/15 07:35:05;;;;;;;3.35;2.83;;;;;;;-141.84;40.38;23494.16;5022694;28;20332;-65
2023/07/15 07:37:33;;;;;;;3.75;2.50;;;;;;;-141.84;39.90;23563.31;5023060;28;20229;-63
2023/07/15 07:40:02;;;;;;;4.10;2.67;;;;;;;-141.84;39.97;23524.66;5022931;28;20601;-64
2023/07/15 07:42:32;;;;;;;3.55;2.78;;;;;;;-141.84;39.82;23551.09;5015841;28;20785;-64
2023/07/15 07:45:00;;;;;;;3.08;2.78;;;;;;;-141.84;39.76;23577.56;5023163;28;20248;-65
2023/07/15 07:47:29;;;;;;;4.80;2.90;;;;;;;-141.84;39.73;23522.63;5023282;28;20661;-65
2023/07/15 07:49:57;;;;;;;3.63;3.13;;;;;;;-141.84;39.89;23534.84;5023098;28;20260;-65
2023/07/15 07:52:26;;;;;;;3.35;3.03;;;;;;;-141.84;39.23;23575.50;5019746;28;20261;-65
2023/07/15 07:54:54;;;;;;;3.20;2.92;;;;;;;-141.84;39.30;23567.38;5022660;28;20280;-64
2023/07/15 07:57:23;;;;;;;3.47;2.88;;;;;;;-141.84;39.25;23604.00;5022799;28;20253;-64
2023/07/15 07:59:53;;;;;;;3.42;3.00;;;;;;;-141.84;38.65;23608.06;5023051;28;20642;-64
2023/07/15 08:02:21;;;;;;;4.40;2.95;;;;;;;-141.84;38.77;23624.34;5022665;28;20753;-64
2023/07/15 08:04:50;;;;;;;3.10;2.80;;;;;;;-141.84;38.56;23652.81;5016805;28;20233;-64
2023/07/15 08:07:19;;;;;;;7.85;2.75;;;;;;;-141.84;38.50;23713.84;5021956;28;20253;-64
2023/07/15 08:09:47;;;;;;;4.75;2.67;;;;;;;-141.84;38.74;23656.88;5022865;28;20503;-64
2023/07/15 08:12:19;;;;;;;3.75;2.72;;;;;;;-141.84;38.25;23707.75;5022657;28;20268;-64
2023/07/15 08:14:47;;;;;;;3.15;2.90;;;;;;;-141.84;38.10;23709.78;5014714;28;20242;-64
2023/07/15 08:17:17;;;;;;;2.88;2.67;;;;;;;-141.84;37.81;23770.81;5022297;28;20759;-65
2023/07/15 08:19:46;;;;;;;3.25;2.80;;;;;;;-141.84;37.94;23758.59;5022116;28;20776;-64
2023/07/15 08:22:14;;;;;;;3.10;2.80;;;;;;;-141.84;38.08;23764.72;5021799;28;20321;-64
2023/07/15 08:24:43;;;;;;;5.35;2.80;;;;;;;-141.84;38.15;23783.03;5014652;28;20305;-63
2023/07/15 08:27:11;;;;;;;2.92;2.72;;;;;;;-141.84;38.05;23795.22;5022334;28;20305;-65
2023/07/15 08:29:40;;;;;;;4.00;3.30;;;;;;;-141.84;37.45;23856.25;5002760;28;20211;-64
2023/07/15 08:32:09;;;;;;;3.03;2.70;;;;;;;-141.84;37.37;23837.94;5002437;28;20320;-64
2023/07/15 08:34:39;;;;;;;6.35;2.60;;;;;;;-141.84;36.95;23937.66;4995097;28;20938;-64
2023/07/15 08:37:07;;;;;;;2.80;2.47;;;;;;;-141.84;37.26;23892.88;5002837;28;20245;-64
2023/07/15 08:39:36;;;;;;;3.00;2.70;;;;;;;-141.84;37.19;23884.75;5002958;28;20309;-63
2023/07/15 08:42:05;;;;;;;2.78;2.42;;;;;;;-141.84;37.12;23896.94;5002485;28;20241;-63
2023/07/15 08:44:34;;;;;;;2.88;2.67;;;;;;;-141.84;36.42;23970.19;4995587;28;20207;-64
2023/07/15 08:47:02;;;;;;;2.58;2.38;;;;;;;-141.84;36.12;23978.34;5021970;28;21019;-64
2023/07/15 08:49:32;;;;;;;2.65;2.45;;;;;;;-141.84;36.33;23960.03;5022098;28;20234;-64
2023/07/15 08:52:03;;;;;;;3.58;2.50;;;;;;;-141.84;36.46;23945.78;5022046;28;20229;-63
2023/07/15 08:54:33;;;;;;;3.17;2.72;;;;;;;-141.84;36.01;23958.00;5014253;28;20249;-64
2023/07/15 08:57:02;;;;;;;5.97;2.40;;;;;;;-141.84;35.42;24006.81;5022485;28;20218;-63
2023/07/15 08:59:31;;;;;;;3.05;2.40;;;;;;;-141.84;35.62;24051.56;5023124;28;20256;-64
2023/07/15 09:02:01;;;;;;;3.38;3.08;;;;;;;-141.84;35.57;24035.31;5022086;28;20234;-64
2023/07/15 09:04:30;;;;;;;3.20;2.53;;;;;;;-141.84;34.73;24135.00;5014205;28;20249;-64
2023/07/15 09:06:59;;;;;;;3.25;2.58;;;;;;;-141.84;33.96;24194.00;5025419;28;20717;-64
2023/07/15 09:09:33;;;;;;;4.78;2.60;;;;;;;-141.84;34.08;24167.56;5025778;28;20230;-64
2023/07/15 09:12:03;;;;;;;5.07;2.47;;;;;;;-141.84;33.33;24214.34;5025942;28;20700;-64
2023/07/15 09:14:32;;;;;;;3.35;2.60;;;;;;;-141.84;33.26;24181.78;5018729;28;20265;-63
2023/07/15 09:17:01;;;;;;;3.40;2.50;;;;;;;-141.84;33.23;24265.22;5025890;28;20272;-63
2023/07/15 09:19:34;;;;;;;2.30;2.10;;;;;;;-141.84;32.84;24208.25;5025825;28;20238;-64
2023/07/15 09:22:06;;;;;;;2.95;2.22;;;;;;;-141.84;32.94;24218.41;5025751;28;20798;-64
2023/07/15 09:24:38;;;;;;;2.50;2.20;;;;;;;-141.84;32.74;24246.91;5017063;28;20229;-65
2023/07/15 09:27:07;;;;;;;2.97;2.38;;;;;;;-141.84;33.06;24222.47;5025809;28;20208;-64
2023/07/15 09:29:36;;;;;;;7.85;2.80;;;;;;;-141.84;32.92;24259.09;5026099;28;20217;-63
2023/07/15 09:32:06;;;;;;;2.78;2.33;;;;;;;-141.84;31.80;24377.13;5025295;28;20280;-64
2023/07/15 09:34:40;;;;;;;2.88;2.63;;;;;;;-141.84;31.59;24377.13;5017586;28;20284;-64
2023/07/15 09:37:09;;;;;;;1.95;1.85;;;;;;;-141.84;31.52;24342.53;5026088;28;20229;-64
2023/07/15 09:39:39;;;;;;;3.20;2.00;;;;;;;-141.84;31.98;24393.41;5025725;28;20288;-64
2023/07/15 09:42:09;;;;;;;2.85;2.33;;;;;;;-141.84;32.03;24379.16;5026017;28;20249;-63
2023/07/15 09:44:39;;;;;;;2.55;1.90;;;;;;;-141.84;32.02;24419.84;5017867;28;20256;-63
2023/07/15 09:47:08;;;;;;;2.88;2.42;;;;;;;-141.84;32.25;24395.44;5025245;28;20268;-63
2023/07/15 09:49:38;;;;;;;3.58;2.70;;;;;;;-141.84;32.28;24503.28;5025209;28;20257;-64
2023/07/15 09:52:07;;;;;;;2.47;2.28;;;;;;;-141.84;32.12;24537.88;5025354;28;20613;-64
2023/07/15 09:54:36;;;;;;;2.60;2.40;;;;;;;-141.84;32.05;24541.94;5017071;28;20249;-64
2023/07/15 09:57:12;;;;;;;2.83;2.40;;;;;;;-141.84;31.70;24631.47;5025615;28;20232;-64
2023/07/15 09:59:46;;;;;;;5.30;3.85;;;;;;;-141.84;31.67;24600.94;5025391;28;20255;-64
2023/07/15 10:02:34;;;;;;;2.83;2.55;;;;;;;-141.84;31.90;24558.22;5025486;28;20325;-63
2023/07/15 10:05:04;;;;;;;2.63;2.10;;;;;;;-141.84;31.42;24609.09;5025226;28;20230;-64
2023/07/15 10:07:34;;;;;;;3.58;2.25;;;;;;;-141.84;31.57;24727.13;5024575;28;20329;-64
2023/07/15 10:10:05;;;;;;;2.70;2.05;;;;;;;-141.84;30.98;24743.38;5025084;28;20304;-65
2023/07/15 10:12:36;;;;;;;3.88;2.60;;;;;;;-141.84;31.15;24735.25;5017783;28;20248;-64
2023/07/15 10:15:07;;;;;;;2.30;2.10;;;;;;;-141.84;30.94;24686.41;5024823;28;20252;-64
2023/07/15 10:17:36;;;;;;;2.45;2.10;;;;;;;-141.84;30.59;24700.66;5025024;28;20214;-65
2023/07/15 10:20:10;;;;;;;3.50;2.00;;;;;;;-141.84;30.62;24727.13;5024657;28;20701;-65
2023/07/15 10:22:39;;;;;;;2.53;2.10;;;;;;;-141.84;30.82;24796.31;5017563;28;20233;-64
2023/07/15 10:25:10;;;;;;;3.92;2.05;;;;;;;-141.84;30.76;24812.56;5024567;28;20253;-64
2023/07/15 10:27:40;;;;;;;2.78;1.92;;;;;;;-141.84;30.85;24792.22;5024999;28;20280;-64
2023/07/15 10:30:17;;;;;;;3.60;2.20;;;;;;;-141.84;30.41;24893.97;5024316;28;20260;-64
2023/07/15 10:33:11;;;;;;;2.30;2.10;;;;;;;-141.84;30.59;24857.34;5017505;28;24536;-63
2023/07/15 10:35:51;;;;;;;3.85;2.22;;;;;;;-141.84;30.21;24942.81;5004935;28;20694;-66
2023/07/15 10:38:24;;;;;;;1.88;1.77;;;;;;;-141.84;30.07;24999.81;5023320;28;20705;-66
2023/07/15 10:40:55;;;;;;;2.30;2.10;;;;;;;-141.84;30.06;25024.22;5021019;28;20292;-63
2023/07/15 10:43:37;;;;;;;2.28;1.75;;;;;;;-141.84;29.60;24987.59;5024534;28;20676;-65
2023/07/15 10:46:08;;;;;;;4.45;1.85;;;;;;;-141.84;29.82;24932.66;5024289;28;20226;-64
2023/07/15 10:48:37;;;;;;;2.10;1.92;;;;;;;-141.84;29.87;24953.00;5016437;28;20773;-64
2023/07/15 10:51:07;;;;;;;3.17;1.92;;;;;;;-141.84;30.33;25012.00;5024176;28;20205;-64
2023/07/15 10:53:37;;;;;;;3.72;1.80;;;;;;;-141.84;30.09;25012.00;5024857;28;20245;-63
2023/07/15 10:56:07;;;;;;;2.53;1.98;;;;;;;-141.84;30.16;25014.03;5020755;28;20640;-65
2023/07/15 10:58:37;;;;;;;3.35;1.75;;;;;;;-141.84;29.57;25142.25;5014715;28;20352;-64
2023/07/15 11:01:07;;;;;;;2.10;1.90;;;;;;;-141.84;29.07;25101.56;5022250;28;20225;-64
2023/07/15 11:03:37;;;;;;;3.13;1.75;;;;;;;-141.84;29.63;25073.06;5023316;28;20236;-64
2023/07/15 11:06:06;;;;;;;2.33;1.55;;;;;;;-141.84;29.34;25203.31;5022533;28;20268;-65
2023/07/15 11:08:40;;;;;;;2.38;1.90;;;;;;;-141.84;29.49;25241.97;5014720;28;20677;-64
2023/07/15 11:11:10;;;;;;;3.20;1.83;;;;;;;-141.84;29.82;25256.22;5022085;28;20237;-65
2023/07/15 11:13:42;;;;;;;4.25;1.70;;;;;;;-141.84;29.54;25262.34;5018788;28;20237;-65
2023/07/15 11:16:11;;;;;;;2.42;2.00;;;;;;;-141.84;29.81;25260.28;5022796;28;20233;-65
2023/07/15 11:18:39;;;;;;;2.28;2.00;;;;;;;-141.84;29.36;25266.41;5014162;28;20641;-65
2023/07/15 11:21:08;;;;;;;2.50;2.10;;;;;;;-141.84;29.38;25380.38;5019420;28;20777;-65
2023/07/15 11:23:37;;;;;;;3.15;2.15;;;;;;;-141.84;29.58;25362.06;5022124;28;20234;-64
2023/07/15 11:26:09;;;;;;;2.10;1.90;;;;;;;-141.84;29.59;25412.94;5022090;28;20288;-64
2023/07/15 11:28:49;;;;;;;2.28;1.90;;;;;;;-141.84;29.39;25480.09;5013168;28;20733;-63